Time;durP1;ratioP1;P1;durP2;ratioP2;P2;SDS_P1;SDS_P2;PMS_P1;PMS_P2;Temp;Humidity;BMP_temperature;BMP_pressure;BME280_temperature;BME280_humidity;BME280_pressure;Samples;Min_cycle;Max_cycle;Signal;HPM_P1;HPM_P2
2023/04/17 00:00:59;;;;;;;11.30;9.40;;;;;;;14.69;100.00;100966.38;2098802;28;20258;-69
2023/04/17 00:02:00;;;;;;;10.77;9.23;;;;;;;14.67;100.00;100958.47;2098450;28;20199;-69
2023/04/17 00:03:00;;;;;;;12.83;9.33;;;;;;;14.70;100.00;100968.72;2103969;28;20183;-70
2023/04/17 00:04:01;;;;;;;10.63;9.03;;;;;;;14.68;100.00;100962.81;2098634;28;20183;-69
2023/04/17 00:05:01;;;;;;;11.13;9.40;;;;;;;14.52;100.00;100945.47;2102447;28;20222;-69
2023/04/17 00:06:02;;;;;;;12.63;9.63;;;;;;;14.63;100.00;100957.03;2104110;28;20242;-70
2023/04/17 00:07:03;;;;;;;11.13;9.83;;;;;;;14.67;100.00;100966.84;2098180;28;20241;-69
2023/04/17 00:08:03;;;;;;;14.57;9.90;;;;;;;14.65;100.00;100969.28;2098476;28;20558;-70
2023/04/17 00:09:04;;;;;;;10.30;9.20;;;;;;;14.72;100.00;100959.91;2098632;28;20197;-69
2023/04/17 00:10:07;;;;;;;10.50;9.27;;;;;;;14.71;100.00;100964.69;2098600;28;20179;-69
2023/04/17 00:11:07;;;;;;;10.30;9.23;;;;;;;14.70;100.00;100968.72;2098610;28;20462;-69
2023/04/17 00:12:08;;;;;;;14.80;10.13;;;;;;;14.75;100.00;100962.56;2104481;28;20917;-69
2023/04/17 00:13:08;;;;;;;10.90;9.80;;;;;;;14.78;100.00;100967.25;2101772;28;20661;-69
2023/04/17 00:14:08;;;;;;;11.50;9.60;;;;;;;14.81;100.00;100965.56;2098247;28;20705;-70
2023/04/17 00:15:09;;;;;;;10.70;9.60;;;;;;;14.86;100.00;100970.56;2098464;28;20204;-69
2023/04/17 00:16:11;;;;;;;10.40;9.30;;;;;;;14.84;100.00;100971.00;2099858;28;20255;-69
2023/04/17 00:17:11;;;;;;;10.17;9.17;;;;;;;14.78;100.00;100944.13;2105916;28;20194;-69
2023/04/17 00:18:12;;;;;;;11.87;10.07;;;;;;;14.80;100.00;100956.41;2098737;28;20426;-69
2023/04/17 00:19:12;;;;;;;11.87;10.30;;;;;;;14.81;100.00;100962.75;2098581;28;20311;-70
2023/04/17 00:20:13;;;;;;;11.50;10.30;;;;;;;14.82;100.00;100969.91;2098559;28;20191;-70
2023/04/17 00:21:14;;;;;;;13.37;10.23;;;;;;;14.73;100.00;100951.06;2103852;28;20175;-70
2023/04/17 00:22:14;;;;;;;13.43;10.43;;;;;;;14.73;100.00;100967.03;2102585;28;20484;-70
2023/04/17 00:23:15;;;;;;;14.43;9.90;;;;;;;14.81;100.00;100959.97;2098366;28;20271;-69
2023/04/17 00:24:15;;;;;;;12.20;10.63;;;;;;;14.76;100.00;100960.56;2097780;28;20175;-70
2023/04/17 00:25:16;;;;;;;12.57;10.63;;;;;;;14.76;100.00;100952.19;2099274;28;20203;-69
2023/04/17 00:26:16;;;;;;;12.47;10.20;;;;;;;14.82;100.00;100965.09;2106925;28;20172;-70
2023/04/17 00:27:16;;;;;;;14.27;10.80;;;;;;;14.75;100.00;100959.75;2098392;28;20214;-70
2023/04/17 00:28:17;;;;;;;12.40;10.70;;;;;;;14.78;100.00;100960.88;2098514;28;20176;-70
2023/04/17 00:29:17;;;;;;;14.87;10.83;;;;;;;14.77;100.00;100967.69;2098439;28;20206;-69
2023/04/17 00:30:18;;;;;;;13.27;10.97;;;;;;;14.75;100.00;100959.75;2103015;28;20190;-70
2023/04/17 00:31:18;;;;;;;12.37;11.17;;;;;;;13.95;100.00;100843.47;2103429;28;20225;-69
2023/04/17 00:32:18;;;;;;;12.37;10.97;;;;;;;14.54;100.00;100948.56;2098467;28;20178;-70
2023/04/17 00:33:19;;;;;;;16.00;11.17;;;;;;;14.64;100.00;100959.38;2098354;28;20176;-69
2023/04/17 00:34:19;;;;;;;11.90;10.07;;;;;;;14.42;100.00;100939.03;2098028;28;20665;-69
2023/04/17 00:35:20;;;;;;;13.23;11.50;;;;;;;14.53;100.00;100988.84;2090225;28;20791;-69
2023/04/17 00:36:20;;;;;;;14.43;11.90;;;;;;;14.54;100.00;100960.50;2097412;28;20195;-69
2023/04/17 00:37:21;;;;;;;14.13;11.97;;;;;;;14.53;100.00;100963.75;2103876;28;20250;-70
2023/04/17 00:38:21;;;;;;;14.90;11.43;;;;;;;14.53;100.00;100966.53;2101793;28;20644;-70
2023/04/17 00:39:21;;;;;;;12.93;11.53;;;;;;;14.51;100.00;100969.00;2098307;28;20191;-70
2023/04/17 00:40:22;;;;;;;14.33;11.97;;;;;;;14.51;100.00;100971.78;2098441;28;20248;-69
2023/04/17 00:41:23;;;;;;;14.07;11.80;;;;;;;14.18;100.00;100909.94;2098250;28;20174;-69
2023/04/17 00:42:23;;;;;;;13.17;11.77;;;;;;;14.54;100.00;100965.28;2098295;28;20626;-67
2023/04/17 00:43:23;;;;;;;14.83;11.83;;;;;;;13.97;100.00;100877.22;2098537;28;20205;-69
2023/04/17 00:44:24;;;;;;;16.53;12.07;;;;;;;14.44;100.00;100946.94;2098094;28;20244;-69
2023/04/17 00:45:24;;;;;;;14.67;12.03;;;;;;;14.58;100.00;100969.53;2097978;28;20200;-69
2023/04/17 00:46:25;;;;;;;14.00;11.80;;;;;;;14.58;100.00;100966.75;2098298;28;20202;-69
2023/04/17 00:47:26;;;;;;;14.47;11.80;;;;;;;14.59;100.00;100967.50;2097711;28;20179;-69
2023/04/17 00:48:27;;;;;;;15.93;12.83;;;;;;;14.52;100.00;100962.97;2098349;28;20190;-69
2023/04/17 00:49:28;;;;;;;13.67;12.23;;;;;;;14.53;100.00;100972.91;2100247;28;20433;-69
2023/04/17 00:50:29;;;;;;;14.17;12.67;;;;;;;14.52;100.00;100967.78;2105677;28;20555;-69
2023/04/17 00:51:31;;;;;;;14.67;12.93;;;;;;;13.89;100.00;100875.13;2098459;28;20417;-70
2023/04/17 00:52:31;;;;;;;13.87;12.47;;;;;;;13.96;100.00;100889.63;2090007;28;20434;-70
2023/04/17 00:53:32;;;;;;;16.13;12.87;;;;;;;14.53;100.00;100970.13;2097184;28;20479;-69
2023/04/17 00:54:34;;;;;;;15.70;12.00;;;;;;;14.07;100.00;100919.91;2098293;28;20182;-68
2023/04/17 00:55:36;;;;;;;19.10;12.30;;;;;;;14.54;100.00;100966.09;2097663;28;20206;-69
2023/04/17 00:56:37;;;;;;;14.40;12.30;;;;;;;14.56;100.00;100977.56;2102410;28;20800;-70
2023/04/17 00:57:38;;;;;;;16.10;12.87;;;;;;;14.46;100.00;100972.38;2102964;28;20444;-70
2023/04/17 00:58:39;;;;;;;15.50;13.07;;;;;;;14.45;100.00;100973.59;2098277;28;20244;-70
2023/04/17 00:59:40;;;;;;;15.83;13.43;;;;;;;14.47;100.00;100976.72;2098024;28;20175;-69
2023/04/17 01:00:40;;;;;;;18.97;13.30;;;;;;;14.43;100.00;100967.69;2098559;28;20427;-69
2023/04/17 01:01:41;;;;;;;16.70;13.80;;;;;;;14.33;100.00;100955.66;2106604;28;20378;-70
2023/04/17 01:02:41;;;;;;;14.80;13.27;;;;;;;14.45;100.00;100979.19;2099434;28;20215;-70
2023/04/17 01:03:42;;;;;;;17.50;13.10;;;;;;;14.40;100.00;100966.56;2097476;28;20191;-70
2023/04/17 01:04:43;;;;;;;16.07;13.53;;;;;;;14.45;100.00;100968.03;2094713;28;20240;-70
2023/04/17 01:05:48;;;;;;;15.83;12.83;;;;;;;14.46;100.00;100961.22;2097668;28;20447;-70
2023/04/17 01:06:48;;;;;;;16.50;12.87;;;;;;;14.47;100.00;100966.34;2098260;28;20201;-70
2023/04/17 01:07:49;;;;;;;13.77;12.40;;;;;;;14.52;100.00;100962.97;2099764;28;20446;-69
2023/04/17 01:08:50;;;;;;;15.50;12.37;;;;;;;14.35;100.00;100932.91;2105410;28;20673;-70
2023/04/17 01:09:50;;;;;;;13.90;11.87;;;;;;;14.62;100.00;100970.19;2098419;28;20179;-70
2023/04/17 01:10:51;;;;;;;15.07;12.67;;;;;;;14.68;100.00;100967.59;2098203;28;20643;-69
2023/04/17 01:11:51;;;;;;;15.87;12.57;;;;;;;14.70;100.00;100971.50;2098173;28;20202;-70
2023/04/17 01:13:05;;;;;;;16.03;11.97;;;;;;;14.72;100.00;100969.06;2104012;28;20193;-69
2023/04/17 01:14:05;;;;;;;13.20;11.90;;;;;;;14.77;100.00;100968.47;2099916;28;20202;-70
2023/04/17 01:15:06;;;;;;;17.43;12.17;;;;;;;14.75;100.00;100967.38;2098006;28;20489;-70
2023/04/17 01:16:06;;;;;;;14.13;11.23;;;;;;;14.68;100.00;100960.03;2093429;28;20200;-70
2023/04/17 01:17:09;;;;;;;17.77;12.40;;;;;;;14.64;100.00;100961.38;2092039;28;20198;-70
2023/04/17 01:18:10;;;;;;;14.47;12.30;;;;;;;14.23;100.00;100901.06;2098087;28;20644;-70
2023/04/17 01:19:13;;;;;;;18.33;12.83;;;;;;;14.60;100.00;100967.06;2096755;28;20516;-70
2023/04/17 01:20:14;;;;;;;15.53;11.93;;;;;;;14.05;100.00;100886.94;2090098;28;20453;-70
2023/04/17 01:21:15;;;;;;;15.97;12.17;;;;;;;14.59;100.00;100970.31;2098181;28;20446;-70
2023/04/17 01:22:15;;;;;;;15.23;11.67;;;;;;;14.58;100.00;100958.38;2098078;28;20173;-70
2023/04/17 01:23:16;;;;;;;15.57;12.30;;;;;;;14.61;100.00;100954.66;2098115;28;20762;-70
2023/04/17 01:24:16;;;;;;;14.90;12.70;;;;;;;13.79;100.00;100829.69;2098089;28;20623;-69
2023/04/17 01:25:18;;;;;;;15.80;12.93;;;;;;;14.52;100.00;100951.81;2097995;28;20563;-70
2023/04/17 01:26:20;;;;;;;21.87;13.93;;;;;;;14.42;100.00;100952.19;2098016;28;20641;-70
2023/04/17 01:27:21;;;;;;;18.73;13.67;;;;;;;14.19;100.00;100911.53;2096733;28;21052;-70
2023/04/17 01:28:21;;;;;;;21.47;13.57;;;;;;;14.51;100.00;100953.03;2098059;28;20845;-70
2023/04/17 01:29:22;;;;;;;19.23;13.77;;;;;;;13.90;100.00;100865.53;2097887;28;20199;-70
2023/04/17 01:30:23;;;;;;;21.97;14.50;;;;;;;14.49;100.00;100954.75;2097711;28;20226;-70
2023/04/17 01:31:25;;;;;;;21.10;14.50;;;;;;;14.48;100.00;100955.94;2097403;28;20198;-70
2023/04/17 01:32:25;;;;;;;18.53;13.57;;;;;;;14.46;100.00;100952.84;2097948;28;20195;-70
2023/04/17 01:33:26;;;;;;;23.37;14.53;;;;;;;14.44;100.00;100955.31;2098025;28;20552;-70
2023/04/17 01:34:26;;;;;;;22.63;14.80;;;;;;;14.39;100.00;100947.53;2097800;28;20252;-69
2023/04/17 01:35:27;;;;;;;27.87;15.10;;;;;;;14.33;100.00;100952.88;2097890;28;20545;-70
2023/04/17 01:36:27;;;;;;;23.73;15.23;;;;;;;14.35;100.00;100944.84;2097853;28;20653;-70
2023/04/17 01:37:27;;;;;;;26.33;15.57;;;;;;;14.26;100.00;100953.13;2096731;28;20246;-70
2023/04/17 01:38:28;;;;;;;22.37;15.17;;;;;;;13.57;100.00;100851.09;2098069;28;20310;-70
2023/04/17 01:39:28;;;;;;;24.00;15.77;;;;;;;14.03;100.00;100935.97;2097967;28;20192;-70
2023/04/17 01:40:29;;;;;;;27.17;16.17;;;;;;;14.10;100.00;100953.22;2098047;28;20218;-70
2023/04/17 01:41:29;;;;;;;27.53;15.90;;;;;;;13.91;100.00;100934.75;2097690;28;20257;-70
2023/04/17 01:42:29;;;;;;;26.73;16.33;;;;;;;14.01;100.00;100936.41;2097924;28;20684;-69
2023/04/17 01:43:30;;;;;;;25.43;15.33;;;;;;;14.14;100.00;100956.66;2097847;28;20571;-68
2023/04/17 01:44:30;;;;;;;26.70;16.27;;;;;;;14.04;100.00;100957.78;2097749;28;20552;-69
2023/04/17 01:45:31;;;;;;;32.40;16.00;;;;;;;14.03;100.00;100967.38;2097854;28;20226;-70
2023/04/17 01:46:31;;;;;;;28.20;16.33;;;;;;;13.94;100.00;100944.22;2097758;28;20207;-69
2023/04/17 01:47:31;;;;;;;30.07;15.87;;;;;;;14.03;100.00;100956.25;2097097;28;20254;-69
2023/04/17 01:48:33;;;;;;;26.67;15.47;;;;;;;13.96;100.00;100959.28;2097385;28;20222;-69
2023/04/17 01:49:33;;;;;;;24.53;15.93;;;;;;;13.98;100.00;100954.00;2097803;28;20200;-70
2023/04/17 01:50:34;;;;;;;25.43;16.03;;;;;;;13.96;100.00;100962.06;2097739;28;20440;-69
2023/04/17 01:51:34;;;;;;;23.07;15.23;;;;;;;13.99;100.00;100961.16;2097815;28;20279;-69
2023/04/17 01:52:35;;;;;;;31.07;16.30;;;;;;;13.98;100.00;100956.03;2094955;28;20259;-69
2023/04/17 01:53:37;;;;;;;27.10;17.13;;;;;;;13.76;100.00;100942.00;2089477;28;20206;-69
2023/04/17 01:54:38;;;;;;;26.30;16.77;;;;;;;13.90;100.00;100951.91;2090281;28;20570;-69
2023/04/17 01:55:38;;;;;;;27.73;17.03;;;;;;;13.97;100.00;100960.81;2097933;28;20426;-69
2023/04/17 01:56:39;;;;;;;27.33;16.53;;;;;;;14.06;100.00;100962.94;2097758;28;20193;-69
2023/04/17 01:57:39;;;;;;;24.97;15.53;;;;;;;14.05;100.00;100961.38;2097202;28;20238;-69
2023/04/17 01:58:40;;;;;;;24.13;16.63;;;;;;;13.99;100.00;100965.97;2097252;28;20182;-69
2023/04/17 01:59:40;;;;;;;27.40;16.10;;;;;;;13.88;100.00;100951.59;2097624;28;20285;-69
2023/04/17 02:00:41;;;;;;;27.67;15.90;;;;;;;13.98;100.00;100961.63;2097828;28;20222;-69
2023/04/17 02:01:41;;;;;;;27.60;16.03;;;;;;;13.47;100.00;100884.88;2097731;28;20273;-69
2023/04/17 02:02:42;;;;;;;25.20;15.73;;;;;;;14.01;100.00;100952.34;2097659;28;20647;-69
2023/04/17 02:03:42;;;;;;;25.73;16.00;;;;;;;13.88;100.00;100952.34;2096912;28;20186;-69
2023/04/17 02:04:42;;;;;;;25.03;17.53;;;;;;;13.94;100.00;100963.72;2097363;28;20175;-69
2023/04/17 02:05:46;;;;;;;26.67;16.73;;;;;;;13.61;100.00;100909.47;2097679;28;20183;-68
2023/04/17 02:06:47;;;;;;;27.30;16.83;;;;;;;13.89;100.00;100955.94;2097800;28;20286;-69
2023/04/17 02:07:49;;;;;;;25.07;16.30;;;;;;;13.86;100.00;100963.19;2102849;28;20566;-69
2023/04/17 02:08:49;;;;;;;26.50;17.07;;;;;;;13.80;100.00;100969.75;2100621;28;20192;-69
2023/04/17 02:09:50;;;;;;;26.70;17.07;;;;;;;13.79;100.00;100957.81;2097646;28;20440;-69
2023/04/17 02:10:50;;;;;;;26.73;17.40;;;;;;;13.84;100.00;100959.28;2097601;28;20250;-68
2023/04/17 02:11:51;;;;;;;32.37;17.20;;;;;;;13.88;100.00;100954.38;2098836;28;20187;-68
2023/04/17 02:12:51;;;;;;;30.27;18.13;;;;;;;13.89;100.00;100959.47;2105729;28;20263;-68
2023/04/17 02:13:52;;;;;;;31.00;18.40;;;;;;;13.85;100.00;100958.84;2097798;28;20171;-69
2023/04/17 02:14:52;;;;;;;32.67;17.80;;;;;;;13.89;100.00;100958.72;2097507;28;20206;-69
2023/04/17 02:15:53;;;;;;;29.87;18.37;;;;;;;13.82;100.00;100956.94;2097702;28;20271;-69
2023/04/17 02:16:53;;;;;;;28.70;18.03;;;;;;;13.64;100.00;100937.22;2102360;28;20183;-69
2023/04/17 02:17:53;;;;;;;32.33;17.97;;;;;;;13.80;100.00;100961.38;2101858;28;20217;-69
2023/04/17 02:18:54;;;;;;;32.40;18.23;;;;;;;13.50;100.00;100920.16;2097467;28;20198;-68
2023/04/17 02:19:54;;;;;;;31.10;18.67;;;;;;;13.53;100.00;100933.97;2097076;28;20564;-68
2023/04/17 02:20:55;;;;;;;30.93;18.07;;;;;;;13.71;100.00;100969.63;2097985;28;20265;-69
2023/04/17 02:21:55;;;;;;;35.67;18.57;;;;;;;13.67;100.00;100960.59;2106196;28;20197;-69
2023/04/17 02:22:58;;;;;;;35.10;18.87;;;;;;;13.75;100.00;100959.16;2098375;28;20194;-68
2023/04/17 02:23:58;;;;;;;37.73;19.00;;;;;;;13.75;100.00;100970.31;2097573;28;20179;-68
2023/04/17 02:24:59;;;;;;;30.27;18.43;;;;;;;13.73;100.00;100962.38;2097599;28;20436;-69
2023/04/17 02:25:59;;;;;;;28.30;18.10;;;;;;;13.76;100.00;100971.84;2102120;28;20261;-68
2023/04/17 02:27:00;;;;;;;32.83;18.37;;;;;;;13.71;100.00;100967.63;2101936;28;20197;-69
2023/04/17 02:28:01;;;;;;;35.63;18.77;;;;;;;13.71;100.00;100969.63;2097584;28;20176;-68
2023/04/17 02:29:01;;;;;;;34.60;19.17;;;;;;;13.65;100.00;100976.97;2097427;28;20432;-68
2023/04/17 02:30:02;;;;;;;33.97;18.90;;;;;;;13.65;100.00;100974.97;2097113;28;20199;-69
2023/04/17 02:31:07;;;;;;;31.77;18.63;;;;;;;13.63;100.00;100982.97;2089481;28;20658;-68
2023/04/17 02:32:07;;;;;;;30.30;18.73;;;;;;;13.62;100.00;100978.66;2104477;28;20999;-69
2023/04/17 02:33:08;;;;;;;38.03;19.53;;;;;;;13.45;100.00;100954.91;2098392;28;20875;-69
2023/04/17 02:34:08;;;;;;;31.87;19.20;;;;;;;13.62;100.00;100978.66;2097661;28;20605;-68
2023/04/17 02:35:09;;;;;;;32.53;18.63;;;;;;;13.63;100.00;100982.22;2097383;28;20637;-68
2023/04/17 02:36:10;;;;;;;32.27;19.53;;;;;;;13.54;100.00;100982.88;2097503;28;20203;-68
2023/04/17 02:37:10;;;;;;;31.60;18.90;;;;;;;13.54;100.00;100979.31;2096973;28;20548;-68
2023/04/17 02:38:10;;;;;;;35.50;18.97;;;;;;;13.52;100.00;100976.19;2097519;28;20230;-68
2023/04/17 02:39:11;;;;;;;35.47;19.27;;;;;;;13.51;100.00;100977.41;2097604;28;20175;-69
2023/04/17 02:40:12;;;;;;;31.60;20.00;;;;;;;13.54;100.00;100980.09;2097223;28;20204;-69
2023/04/17 02:41:12;;;;;;;34.67;19.73;;;;;;;13.55;100.00;100987.22;2097365;28;20180;-68
2023/04/17 02:42:12;;;;;;;35.20;19.30;;;;;;;13.50;100.00;100982.22;2097503;28;20224;-68
2023/04/17 02:43:13;;;;;;;33.40;19.37;;;;;;;13.50;100.00;100984.19;2102391;28;20175;-68
2023/04/17 02:44:13;;;;;;;32.13;19.40;;;;;;;13.43;100.00;100982.41;2102107;28;20200;-69
2023/04/17 02:45:14;;;;;;;37.17;20.80;;;;;;;13.26;100.00;100967.00;2097494;28;20446;-69
2023/04/17 02:46:14;;;;;;;33.73;20.23;;;;;;;13.39;100.00;100987.31;2097436;28;20173;-69
2023/04/17 02:47:15;;;;;;;38.73;21.00;;;;;;;13.42;100.00;100986.41;2097395;28;20203;-69
2023/04/17 02:48:16;;;;;;;35.97;20.17;;;;;;;13.44;100.00;100989.56;2105937;28;20295;-69
2023/04/17 02:49:16;;;;;;;38.13;20.17;;;;;;;13.45;100.00;100987.53;2098190;28;20231;-69
2023/04/17 02:50:17;;;;;;;33.47;19.23;;;;;;;13.48;100.00;100981.84;2097437;28;20427;-69
2023/04/17 02:51:17;;;;;;;36.37;20.40;;;;;;;13.46;100.00;100992.66;2096906;28;20225;-69
2023/04/17 02:52:18;;;;;;;33.83;19.97;;;;;;;13.52;100.00;100981.78;2101702;28;20287;-69
2023/04/17 02:53:18;;;;;;;32.30;20.47;;;;;;;13.58;100.00;100988.34;2102712;28;20199;-69
2023/04/17 02:54:19;;;;;;;33.70;19.87;;;;;;;13.55;100.00;100983.66;2097409;28;20263;-69
2023/04/17 02:55:20;;;;;;;37.80;20.67;;;;;;;13.59;100.00;100987.13;2097386;28;20214;-69
2023/04/17 02:56:20;;;;;;;31.47;20.03;;;;;;;13.63;100.00;100993.38;2097752;28;20645;-68
2023/04/17 02:57:21;;;;;;;35.70;19.40;;;;;;;13.66;100.00;100982.13;2104930;28;20259;-68
2023/04/17 02:58:22;;;;;;;37.90;19.50;;;;;;;13.65;100.00;100983.34;2098811;28;20199;-68
2023/04/17 02:59:24;;;;;;;33.70;19.17;;;;;;;13.56;100.00;100990.78;2097522;28;20424;-69
2023/04/17 03:00:25;;;;;;;30.87;19.43;;;;;;;13.28;100.00;100947.84;2097335;28;20196;-68
2023/04/17 03:01:26;;;;;;;40.27;19.90;;;;;;;13.25;100.00;100943.19;2100465;28;20434;-69
2023/04/17 03:02:29;;;;;;;35.10;20.90;;;;;;;13.35;100.00;100972.72;2102976;28;20414;-68
2023/04/17 03:03:33;;;;;;;36.70;20.10;;;;;;;13.50;100.00;100979.41;2099204;28;20805;-69
2023/04/17 03:04:37;;;;;;;35.93;21.37;;;;;;;13.51;100.00;100982.97;2097555;28;20428;-68
2023/04/17 03:05:37;;;;;;;33.00;20.20;;;;;;;13.53;100.00;100980.53;2097400;28;20412;-69
2023/04/17 03:06:38;;;;;;;39.13;21.07;;;;;;;13.56;100.00;100974.84;2097559;28;20447;-69
2023/04/17 03:07:38;;;;;;;40.40;20.77;;;;;;;13.57;100.00;100975.66;2096925;28;20277;-69
2023/04/17 03:08:39;;;;;;;33.20;20.10;;;;;;;13.45;100.00;100979.97;2104060;28;20195;-68
2023/04/17 03:09:39;;;;;;;33.90;21.10;;;;;;;13.41;100.00;100979.28;2099511;28;20200;-68
2023/04/17 03:10:41;;;;;;;37.93;21.20;;;;;;;13.38;100.00;100979.41;2096748;28;20246;-68
2023/04/17 03:11:41;;;;;;;40.03;21.53;;;;;;;13.35;100.00;100981.06;2096981;28;20434;-68
2023/04/17 03:12:42;;;;;;;36.77;21.03;;;;;;;13.25;100.00;100982.16;2097063;28;20469;-68
2023/04/17 03:13:42;;;;;;;39.70;21.60;;;;;;;13.32;100.00;100978.41;2097343;28;20175;-68
2023/04/17 03:14:43;;;;;;;35.53;21.03;;;;;;;13.41;100.00;100982.06;2097355;28;20189;-68
2023/04/17 03:15:43;;;;;;;36.57;20.90;;;;;;;13.39;100.00;100984.53;2096688;28;20215;-68
2023/04/17 03:16:44;;;;;;;45.00;21.87;;;;;;;13.39;100.00;100984.53;2097905;28;20192;-68
2023/04/17 03:17:44;;;;;;;33.13;20.87;;;;;;;13.31;100.00;100966.47;2098605;28;20586;-68
2023/04/17 03:18:45;;;;;;;33.83;20.93;;;;;;;13.37;100.00;100986.19;2099007;28;20185;-68
2023/04/17 03:19:45;;;;;;;35.90;20.37;;;;;;;13.41;100.00;100982.06;2098981;28;20314;-68
2023/04/17 03:20:46;;;;;;;37.40;21.97;;;;;;;13.45;100.00;100982.75;2098926;28;20434;-68
2023/04/17 03:21:46;;;;;;;35.67;20.20;;;;;;;13.49;100.00;100985.44;2098829;28;20264;-69
2023/04/17 03:22:47;;;;;;;39.43;20.80;;;;;;;13.51;100.00;100978.19;2098328;28;20179;-68
2023/04/17 03:23:47;;;;;;;39.20;21.17;;;;;;;13.46;100.00;100989.09;2099153;28;20187;-68
2023/04/17 03:24:47;;;;;;;36.57;20.27;;;;;;;13.47;100.00;100983.09;2098996;28;20192;-68
2023/04/17 03:25:49;;;;;;;36.93;20.60;;;;;;;13.49;100.00;100975.09;2098932;28;20224;-68
2023/04/17 03:26:49;;;;;;;34.50;19.80;;;;;;;13.49;100.00;100980.66;2098909;28;20239;-69
2023/04/17 03:27:50;;;;;;;34.57;19.90;;;;;;;13.47;100.00;100973.97;2098628;28;20499;-69
2023/04/17 03:28:50;;;;;;;31.00;19.67;;;;;;;13.45;100.00;100979.19;2098898;28;20257;-69
2023/04/17 03:29:53;;;;;;;30.63;19.40;;;;;;;13.45;100.00;100977.19;2098898;28;20184;-69
2023/04/17 03:30:56;;;;;;;36.53;18.97;;;;;;;13.46;100.00;100980.72;2098853;28;20187;-69
2023/04/17 03:31:57;;;;;;;30.17;19.50;;;;;;;13.38;100.00;100968.25;2098870;28;20432;-68
2023/04/17 03:32:57;;;;;;;29.70;18.43;;;;;;;13.43;100.00;100987.22;2098405;28;20414;-69
2023/04/17 03:33:57;;;;;;;29.83;18.40;;;;;;;13.47;100.00;100985.88;2099014;28;20207;-68
2023/04/17 03:34:58;;;;;;;29.50;18.00;;;;;;;13.47;100.00;100982.31;2098791;28;20202;-68
2023/04/17 03:35:58;;;;;;;30.47;19.50;;;;;;;13.42;100.00;100982.88;2098879;28;20218;-68
2023/04/17 03:36:59;;;;;;;29.40;18.87;;;;;;;13.40;100.00;100972.16;2098259;28;20188;-68
2023/04/17 03:37:59;;;;;;;28.27;19.13;;;;;;;13.34;100.00;100979.50;2098808;28;20214;-68
2023/04/17 03:39:00;;;;;;;28.67;19.07;;;;;;;13.28;100.00;100984.03;2098827;28;20184;-68
2023/04/17 03:40:00;;;;;;;27.30;19.07;;;;;;;13.31;100.00;100985.94;2098769;28;20178;-69
2023/04/17 03:41:01;;;;;;;28.27;19.50;;;;;;;13.25;100.00;100978.56;2099027;28;20180;-68
2023/04/17 03:42:01;;;;;;;29.20;18.90;;;;;;;13.21;100.00;100984.25;2098731;28;20237;-68
2023/04/17 03:43:01;;;;;;;32.90;19.87;;;;;;;13.23;100.00;100990.16;2098624;28;20188;-68
2023/04/17 03:44:02;;;;;;;30.80;19.53;;;;;;;13.25;100.00;100982.16;2098422;28;20187;-68
2023/04/17 03:45:03;;;;;;;28.23;19.57;;;;;;;13.24;100.00;100985.38;2098849;28;20218;-68
2023/04/17 03:46:04;;;;;;;31.20;19.63;;;;;;;13.11;100.00;100965.84;2102546;28;20580;-68
2023/04/17 03:47:04;;;;;;;30.17;19.93;;;;;;;13.28;100.00;100981.25;2103996;28;20524;-69
2023/04/17 03:48:06;;;;;;;27.27;19.10;;;;;;;13.24;100.00;100985.38;2098666;28;20183;-69
2023/04/17 03:49:06;;;;;;;28.87;19.80;;;;;;;13.12;100.00;100967.41;2098686;28;20259;-68
2023/04/17 03:50:07;;;;;;;27.70;19.20;;;;;;;13.28;100.00;100986.06;2098850;28;20446;-68
2023/04/17 03:51:07;;;;;;;26.13;19.00;;;;;;;13.35;100.00;100988.63;2098617;28;20246;-68
2023/04/17 03:52:08;;;;;;;28.03;19.33;;;;;;;13.32;100.00;100995.09;2098730;28;20237;-68
2023/04/17 03:53:08;;;;;;;27.17;18.80;;;;;;;13.44;100.00;100991.53;2098669;28;20212;-68
2023/04/17 03:54:09;;;;;;;28.63;17.63;;;;;;;13.44;100.00;100983.97;2098133;28;20188;-68
2023/04/17 03:55:10;;;;;;;24.93;17.63;;;;;;;13.45;100.00;100987.53;2098721;28;20205;-68
2023/04/17 03:56:10;;;;;;;29.93;18.30;;;;;;;12.79;100.00;100888.09;2098762;28;20628;-68
2023/04/17 03:57:11;;;;;;;24.07;17.70;;;;;;;13.40;100.00;100980.53;2097932;28;20779;-68
2023/04/17 03:58:11;;;;;;;28.77;17.87;;;;;;;12.90;100.00;100894.13;2098896;28;20621;-69
2023/04/17 03:59:11;;;;;;;21.87;16.80;;;;;;;13.51;100.00;100982.97;2107238;28;20183;-68
2023/04/17 04:00:12;;;;;;;24.70;16.97;;;;;;;13.42;100.00;100982.88;2099685;28;20622;-68
2023/04/17 04:01:13;;;;;;;22.60;17.63;;;;;;;13.44;100.00;100983.97;2098669;28;20257;-68
2023/04/17 04:02:13;;;;;;;27.87;17.03;;;;;;;13.45;100.00;100981.97;2098709;28;20188;-69
2023/04/17 04:03:14;;;;;;;27.27;17.97;;;;;;;13.45;100.00;100984.75;2100563;28;20266;-69
2023/04/17 04:04:15;;;;;;;24.13;17.33;;;;;;;13.48;100.00;100979.06;2095755;28;20192;-68
2023/04/17 04:05:15;;;;;;;24.03;17.30;;;;;;;13.31;100.00;100955.34;2098425;28;20212;-68
2023/04/17 04:06:19;;;;;;;22.53;17.10;;;;;;;13.40;100.00;100976.94;2098463;28;20177;-68
2023/04/17 04:07:20;;;;;;;24.33;17.10;;;;;;;13.34;100.00;100981.50;2098204;28;20179;-68
2023/04/17 04:08:20;;;;;;;25.10;17.80;;;;;;;13.25;100.00;100979.38;2107168;28;21001;-68
2023/04/17 04:09:21;;;;;;;23.47;17.83;;;;;;;13.29;100.00;100985.63;2099526;28;20518;-68
2023/04/17 04:10:21;;;;;;;22.60;17.83;;;;;;;13.32;100.00;100986.75;2098690;28;20191;-69
2023/04/17 04:11:22;;;;;;;22.63;17.57;;;;;;;13.33;100.00;100983.50;2098609;28;20669;-68
2023/04/17 04:12:22;;;;;;;26.67;18.10;;;;;;;13.07;100.00;100965.19;2102650;28;20223;-68
2023/04/17 04:13:23;;;;;;;27.43;18.27;;;;;;;13.25;100.00;100971.03;2103863;28;20233;-69
2023/04/17 04:14:23;;;;;;;22.77;18.17;;;;;;;13.40;100.00;100983.31;2098481;28;20178;-68
2023/04/17 04:15:23;;;;;;;27.27;18.00;;;;;;;13.37;100.00;100981.41;2097869;28;20204;-68
2023/04/17 04:16:24;;;;;;;25.17;18.53;;;;;;;13.40;100.00;100988.88;2098805;28;20200;-69
2023/04/17 04:17:24;;;;;;;24.27;18.00;;;;;;;13.35;100.00;100991.41;2106013;28;20183;-69
2023/04/17 04:18:25;;;;;;;24.43;18.07;;;;;;;13.37;100.00;100989.75;2100085;28;20206;-69
2023/04/17 04:19:25;;;;;;;23.33;17.93;;;;;;;13.41;100.00;101001.56;2098578;28;20213;-69
2023/04/17 04:20:25;;;;;;;24.23;17.93;;;;;;;13.39;100.00;100983.75;2098610;28;20197;-69
2023/04/17 04:21:27;;;;;;;24.13;17.93;;;;;;;13.44;100.00;100997.91;2101966;28;20662;-68
2023/04/17 04:22:28;;;;;;;22.93;16.77;;;;;;;13.50;100.00;101001.69;2104468;28;20178;-68
2023/04/17 04:23:29;;;;;;;21.50;16.80;;;;;;;13.56;100.00;100991.56;2100004;28;20427;-69
2023/04/17 04:24:30;;;;;;;24.57;17.10;;;;;;;13.60;100.00;100992.25;2106371;28;20428;-68
2023/04/17 04:25:31;;;;;;;21.80;16.83;;;;;;;13.56;100.00;100990.78;2097996;28;20409;-68
2023/04/17 04:26:32;;;;;;;23.57;16.50;;;;;;;13.60;100.00;100999.81;2098450;28;20432;-68
2023/04/17 04:27:32;;;;;;;24.53;16.57;;;;;;;13.62;100.00;100995.34;2097462;28;20192;-68
2023/04/17 04:28:33;;;;;;;18.60;15.57;;;;;;;13.60;100.00;100992.25;2098421;28;20191;-68
2023/04/17 04:29:34;;;;;;;19.00;14.80;;;;;;;13.28;100.00;100935.97;2098572;28;20184;-69
2023/04/17 04:30:37;;;;;;;19.60;15.07;;;;;;;13.65;100.00;100993.69;2098496;28;20186;-69
2023/04/17 04:31:38;;;;;;;19.50;14.90;;;;;;;13.65;100.00;100996.47;2098535;28;20421;-69
2023/04/17 04:32:38;;;;;;;19.27;14.83;;;;;;;13.61;100.00;100995.78;2098495;28;20425;-69
2023/04/17 04:33:38;;;;;;;16.80;14.47;;;;;;;13.63;100.00;100991.34;2098431;28;20183;-68